Temp: 0.7°C   Baro: 1011.5mb
  Wind: 0.0mph   Dir: N (352°)
  Rain: 0.0mm (0.0mm/hr)
  Solar: 0W/m2  Hum: 85%

Historic data

Bath Spa Weather Station Historical Data
Daily Summary for October 24, 2021 Units:  English    Metric   Both
Daily Weekly Monthly Yearly Custom
  High: Low: Average:
Temperature: 57.4 °F 50.4 °F 54 °F
Dew Point: 55.5 °F 45.3 °F 50.2 °F
Humidity: 91% 76% 84%
Wind Speed: 10.6mph 0.4mph 3.8mph
Wind Gust: 20mph - -
Wind- - SSW
Pressure: 30.16 in 29.95 in -
Precipitation: 0.01 in    
Historical Graphs
 
 
Tabular Data for October 24, 2021
Time Temperature Dew Point Pressure Wind Wind Speed Wind Gust Humidity Rainfall Rate (Hourly) solar
00:04 52.9 °F 46.6 °F 30.16 in SSW 4.3 mph 8 mph 76.6% 0.00 in 0 W/m2
00:08 52.8 °F 46.8 °F 30.15 in SSW 5 mph 8 mph 77% 0.00 in 0 W/m2
00:14 52.9 °F 46.4 °F 30.15 in SSW 2.2 mph 8 mph 76% 0.00 in 0 W/m2
00:19 52.9 °F 46.4 °F 30.15 in SSW 3.1 mph 6 mph 76% 0.00 in 0 W/m2
00:24 52.8 °F 46.5 °F 30.15 in SSW 4 mph 7 mph 76.6% 0.00 in 0 W/m2
00:29 52.7 °F 46.6 °F 30.15 in SSW 2.5 mph 5 mph 77% 0.00 in 0 W/m2
00:34 52.5 °F 46.4 °F 30.15 in SSW 2.3 mph 5 mph 77% 0.00 in 0 W/m2
00:39 52.3 °F 46.2 °F 30.15 in SSW 3 mph 6 mph 77% 0.00 in 0 W/m2
00:44 52.3 °F 46.2 °F 30.15 in SSW 2.7 mph 6 mph 77% 0.00 in 0 W/m2
00:49 52.2 °F 46.1 °F 30.15 in SSW 1.9 mph 5 mph 77.2% 0.00 in 0 W/m2
00:54 52.1 °F 46.2 °F 30.15 in SSW 3.2 mph 7 mph 77.8% 0.00 in 0 W/m2
00:59 52.1 °F 46.3 °F 30.15 in SSW 2.8 mph 7 mph 78% 0.00 in 0 W/m2
01:04 52.1 °F 46.3 °F 30.14 in SSW 3.2 mph 7 mph 78% 0.00 in 0 W/m2
01:09 52.2 °F 46.3 °F 30.14 in SSW 3.2 mph 5 mph 78% 0.00 in 0 W/m2
01:14 52.2 °F 46.4 °F 30.14 in SSW 3 mph 7 mph 78% 0.00 in 0 W/m2
01:19 52.2 °F 46.5 °F 30.14 in SSW 2.7 mph 5 mph 78% 0.00 in 0 W/m2
01:24 52.3 °F 46.6 °F 30.14 in SSW 3 mph 7 mph 78% 0.00 in 0 W/m2
01:29 52.3 °F 46.6 °F 30.14 in SSW 2.5 mph 5 mph 78% 0.00 in 0 W/m2
01:34 52.3 °F 46.6 °F 30.14 in SSW 2.4 mph 6 mph 78% 0.00 in 0 W/m2
01:39 52.3 °F 46.5 °F 30.14 in SSW 3.1 mph 6 mph 77.8% 0.00 in 0 W/m2
01:44 52.3 °F 46.6 °F 30.14 in SSW 2.7 mph 5 mph 78% 0.00 in 0 W/m2
01:49 52.3 °F 46.6 °F 30.13 in SSW 2.7 mph 5 mph 78% 0.00 in 0 W/m2
01:54 52.3 °F 46.6 °F 30.13 in SSW 3.2 mph 6 mph 78% 0.00 in 0 W/m2
01:59 52.3 °F 46.6 °F 30.13 in SSW 2.6 mph 6 mph 78% 0.00 in 0 W/m2
02:04 52.3 °F 46.6 °F 30.13 in SSW 2.7 mph 7 mph 78% 0.00 in 0 W/m2
02:09 52.3 °F 46.6 °F 30.12 in SSW 2 mph 6 mph 78% 0.00 in 0 W/m2
02:14 52.3 °F 46.6 °F 30.12 in SSW 0.6 mph 4 mph 78% 0.00 in 0 W/m2
02:19 52.3 °F 46.6 °F 30.12 in SSW 2.5 mph 5 mph 78% 0.00 in 0 W/m2
02:23 52.3 °F 46.6 °F 30.12 in SSW 1.2 mph 5 mph 78% 0.00 in 0 W/m2
02:28 52.3 °F 46.6 °F 30.12 in SSW 2.2 mph 4 mph 78% 0.00 in 0 W/m2
02:34 52.3 °F 46.6 °F 30.12 in SSW 3 mph 7 mph 78% 0.00 in 0 W/m2
02:39 52.3 °F 46.6 °F 30.11 in SSW 3.2 mph 6 mph 78% 0.00 in 0 W/m2
02:44 52.3 °F 46.7 °F 30.11 in SSW 2.4 mph 5 mph 78.2% 0.00 in 0 W/m2
02:49 52.3 °F 46.7 °F 30.11 in SSW 1.3 mph 5 mph 78.4% 0.00 in 0 W/m2
02:54 52.3 °F 46.7 °F 30.11 in SSW 2.8 mph 5 mph 78.4% 0.00 in 0 W/m2
02:59 52.3 °F 46.9 °F 30.11 in SSW 2.5 mph 6 mph 79% 0.00 in 0 W/m2
03:04 52.3 °F 46.9 °F 30.11 in SSW 2.8 mph 5 mph 79% 0.00 in 0 W/m2
03:09 52.3 °F 46.9 °F 30.11 in SSW 2.5 mph 6 mph 79% 0.00 in 0 W/m2
03:14 52.2 °F 46.8 °F 30.10 in SSW 1.3 mph 6 mph 79% 0.00 in 0 W/m2
03:19 52 °F 46.6 °F 30.10 in SSW 3.2 mph 4 mph 79% 0.00 in 0 W/m2
03:24 51.9 °F 46.5 °F 30.10 in SSW 3 mph 6 mph 79% 0.00 in 0 W/m2
03:29 51.6 °F 46.3 °F 30.10 in SSW 2.5 mph 6 mph 79.4% 0.00 in 0 W/m2
03:34 51.5 °F 46.5 °F 30.10 in SSW 2.1 mph 5 mph 80% 0.00 in 0 W/m2
03:39 51.6 °F 46.6 °F 30.10 in SSW 1.5 mph 4 mph 80% 0.00 in 0 W/m2
03:44 51.8 °F 46.8 °F 30.10 in SSW 2.8 mph 6 mph 80% 0.00 in 0 W/m2
03:49 51.9 °F 46.9 °F 30.09 in SSW 1.1 mph 4 mph 80% 0.00 in 0 W/m2
03:54 51.8 °F 46.8 °F 30.09 in SSW 2.5 mph 7 mph 80% 0.00 in 0 W/m2
03:59 51.7 °F 46.7 °F 30.09 in SSW 2.5 mph 5 mph 80% 0.00 in 0 W/m2
04:04 51.6 °F 46.6 °F 30.09 in SSW 2.5 mph 5 mph 80% 0.00 in 0 W/m2
04:09 51.6 °F 46.6 °F 30.08 in SSW 2.5 mph 7 mph 80% 0.00 in 0 W/m2
04:14 51.6 °F 46.4 °F 30.09 in SSW 3 mph 6 mph 79.4% 0.00 in 0 W/m2
04:19 51.9 °F 46.4 °F 30.08 in SSW 4.1 mph 7 mph 78.8% 0.00 in 0 W/m2
04:24 52 °F 46.2 °F 30.08 in SSW 3.3 mph 7 mph 78% 0.00 in 0 W/m2
04:29 52 °F 46.2 °F 30.08 in SSW 3.8 mph 7 mph 78% 0.00 in 0 W/m2
04:34 52 °F 46.1 °F 30.08 in SSW 3.4 mph 7 mph 77.8% 0.00 in 0 W/m2
04:39 52 °F 46 °F 30.08 in SSW 5 mph 10 mph 77.2% 0.00 in 0 W/m2
04:43 52 °F 45.9 °F 30.08 in SSW 4 mph 7 mph 77% 0.00 in 0 W/m2
04:49 52.1 °F 45.7 °F 30.07 in SSW 5.6 mph 9 mph 76.2% 0.00 in 0 W/m2
04:54 52.2 °F 45.7 °F 30.07 in SSW 4.2 mph 8 mph 76% 0.00 in 0 W/m2
04:59 52 °F 45.7 °F 30.07 in SSW 3.3 mph 9 mph 76.6% 0.00 in 0 W/m2
05:04 52 °F 45.9 °F 30.07 in SSW 4.4 mph 9 mph 77% 0.00 in 0 W/m2
05:09 52 °F 45.5 °F 30.07 in SSW 4.5 mph 7 mph 76% 0.00 in 0 W/m2
05:14 52 °F 45.5 °F 30.07 in SSW 3.4 mph 7 mph 76% 0.00 in 0 W/m2
05:19 52 °F 45.7 °F 30.07 in SSW 3.1 mph 7 mph 76.6% 0.00 in 0 W/m2
05:24 52 °F 45.9 °F 30.07 in SSW 5.3 mph 8 mph 77% 0.00 in 0 W/m2
05:29 52 °F 45.9 °F 30.07 in SSW 3.6 mph 7 mph 77% 0.00 in 0 W/m2
05:34 52 °F 45.9 °F 30.06 in SSW 4.8 mph 7 mph 77% 0.00 in 0 W/m2
05:39 52 °F 45.9 °F 30.07 in SSW 3.7 mph 7 mph 77% 0.00 in 0 W/m2
05:44 51.9 °F 45.8 °F 30.07 in SSW 2.6 mph 7 mph 77% 0.00 in 0 W/m2
05:49 51.7 °F 45.6 °F 30.07 in SSW 3.1 mph 6 mph 77% 0.00 in 0 W/m2
05:54 51.6 °F 45.7 °F 30.07 in SSW 2.8 mph 6 mph 77.4% 0.00 in 0 W/m2
05:59 51.4 °F 45.7 °F 30.07 in SSW 3.3 mph 6 mph 78% 0.00 in 0 W/m2
06:04 51.4 °F 45.7 °F 30.06 in SSW 4.8 mph 10 mph 78% 0.00 in 0 W/m2
06:09 51.4 °F 45.7 °F 30.06 in SSW 2.9 mph 10 mph 78% 0.00 in 0 W/m2
06:14 51.4 °F 45.9 °F 30.06 in SSW 3.4 mph 7 mph 78.8% 0.00 in 0 W/m2
06:19 51.4 °F 46 °F 30.06 in South 4 mph 12 mph 79% 0.00 in 0 W/m2
06:24 51.4 °F 46 °F 30.06 in SSE 3.1 mph 12 mph 79% 0.00 in 0 W/m2
06:29 51.4 °F 46 °F 30.06 in SSE 2.5 mph 5 mph 79% 0.00 in 0 W/m2
06:34 51.3 °F 45.9 °F 30.06 in SSE 2.5 mph 5 mph 79% 0.00 in 0 W/m2
06:39 51.2 °F 45.8 °F 30.06 in SSE 3.2 mph 6 mph 79% 0.00 in 0 W/m2
06:44 51 °F 45.7 °F 30.05 in SSE 2.7 mph 6 mph 79.2% 0.00 in 0 W/m2
06:49 50.7 °F 45.6 °F 30.05 in SSE 2.5 mph 4 mph 79.6% 0.00 in 0 W/m2
06:54 50.6 °F 45.6 °F 30.05 in SSE 2.5 mph 4 mph 80% 0.00 in 0 W/m2
06:59 50.5 °F 45.5 °F 30.05 in SSE 3 mph 5 mph 80% 0.00 in 0 W/m2
07:04 50.4 °F 45.3 °F 30.05 in SSE 2.2 mph 5 mph 80% 0.00 in 0 W/m2
07:09 50.4 °F 45.3 °F 30.05 in SSE 2.9 mph 5 mph 80% 0.00 in 0 W/m2
07:14 50.4 °F 45.7 °F 30.05 in SSE 1.8 mph 5 mph 81% 0.00 in 0 W/m2
07:19 50.4 °F 45.7 °F 30.04 in SSE 3.2 mph 7 mph 81% 0.00 in 0 W/m2
07:24 50.4 °F 45.7 °F 30.04 in SSE 2.5 mph 6 mph 81% 0.00 in 0 W/m2
07:29 50.4 °F 45.7 °F 30.04 in SSE 2.8 mph 5 mph 81% 0.00 in 0 W/m2
07:34 50.4 °F 45.7 °F 30.04 in SSE 2.3 mph 5 mph 81% 0.00 in 0 W/m2
07:39 50.4 °F 45.7 °F 30.04 in SSE 1.6 mph 4 mph 81% 0.00 in 0 W/m2
07:44 50.4 °F 45.9 °F 30.04 in SSE 2.8 mph 7 mph 81.6% 0.00 in 0 W/m2
07:49 50.5 °F 45.9 °F 30.04 in SSE 2.6 mph 5 mph 81% 0.00 in 7 W/m2
07:54 50.5 °F 45.9 °F 30.04 in SSE 2.1 mph 7 mph 81% 0.00 in 7 W/m2
07:59 50.5 °F 45.9 °F 30.04 in SSE 2.7 mph 7 mph 81% 0.00 in 7 W/m2
08:04 50.6 °F 46 °F 30.03 in SSE 4.2 mph 5 mph 81% 0.00 in 7 W/m2
08:09 50.6 °F 45.9 °F 30.03 in SSE 1.6 mph 6 mph 81% 0.00 in 7 W/m2
08:14 50.7 °F 46 °F 30.03 in SSE 3.9 mph 7 mph 81% 0.00 in 9 W/m2
08:19 51 °F 46 °F 30.03 in SSE 4.8 mph 8 mph 80.2% 0.00 in 12 W/m2
08:24 51.1 °F 46 °F 30.03 in SSE 4 mph 7 mph 80% 0.00 in 28 W/m2
08:29 51.3 °F 46.2 °F 30.04 in SSE 4.4 mph 10 mph 80% 0.00 in 32 W/m2
08:34 51.5 °F 46.4 °F 30.04 in SSE 3.1 mph 10 mph 79.8% 0.00 in 46 W/m2
08:39 51.9 °F 46.5 °F 30.04 in SSE 5 mph 9 mph 79% 0.00 in 49 W/m2
08:44 52.3 °F 46.7 °F 30.04 in SSE 5.4 mph 8 mph 78.4% 0.00 in 47 W/m2
08:49 52.3 °F 46.6 °F 30.04 in SSE 4.8 mph 11 mph 78% 0.00 in 58 W/m2
08:54 52.5 °F 46.8 °F 30.04 in South 5.6 mph 11 mph 78% 0.00 in 67 W/m2
08:59 52.7 °F 46.9 °F 30.04 in South 5 mph 12 mph 78% 0.00 in 77 W/m2
09:04 52.9 °F 47.1 °F 30.04 in SSE 3.3 mph 7 mph 78% 0.00 in 86 W/m2
09:09 53.1 °F 47.3 °F 30.04 in SSE 5.6 mph 11 mph 78% 0.00 in 91 W/m2
09:14 53.2 °F 47.5 °F 30.04 in SSE 5 mph 11 mph 78% 0.00 in 111 W/m2
09:19 53.2 °F 47.5 °F 30.04 in SSE 5.3 mph 10 mph 78% 0.00 in 167 W/m2
09:24 53.4 °F 47.9 °F 30.04 in South 6.2 mph 10 mph 78.6% 0.00 in 214 W/m2
09:29 53.6 °F 48.2 °F 30.04 in South 3.2 mph 10 mph 78.8% 0.00 in 199 W/m2
09:34 53.8 °F 48.3 °F 30.04 in South 5.5 mph 13 mph 78.5% 0.00 in 200 W/m2
09:39 54 °F 48.5 °F 30.04 in South 7 mph 15 mph 78.8% 0.00 in 186 W/m2
09:44 54 °F 48.6 °F 30.04 in South 8.4 mph 17 mph 79% 0.00 in 134 W/m2
09:49 54 °F 48.6 °F 30.03 in South 6.6 mph 17 mph 79% 0.00 in 104 W/m2
09:54 54.1 °F 48.6 °F 30.03 in SSE 7.2 mph 14 mph 79% 0.00 in 88 W/m2
09:59 54.1 °F 48.6 °F 30.03 in South 9.4 mph 19 mph 79% 0.00 in 114 W/m2
10:04 54.1 °F 48.9 °F 30.03 in South 8.8 mph 15 mph 79.8% 0.00 in 186 W/m2
10:09 54.3 °F 49.1 °F 30.03 in South 8 mph 12 mph 80% 0.00 in 151 W/m2
10:14 54.3 °F 49.1 °F 30.03 in SSE 9 mph 15 mph 80% 0.00 in 165 W/m2
10:19 54.6 °F 49.4 °F 30.03 in South 5 mph 13 mph 80% 0.00 in 137 W/m2
10:23 54.7 °F 49.5 °F 30.03 in SSE 6 mph 11 mph 80% 0.00 in 183 W/m2
10:29 54.9 °F 49.6 °F 30.03 in SSE 4.8 mph 11 mph 80% 0.00 in 178 W/m2
10:34 55 °F 49.8 °F 30.03 in South 5.2 mph 11 mph 80% 0.00 in 141 W/m2
10:39 55 °F 49.8 °F 30.03 in South 5.2 mph 11 mph 80% 0.00 in 156 W/m2
10:44 55 °F 49.8 °F 30.03 in South 7.4 mph 14 mph 80% 0.00 in 202 W/m2
10:49 55.2 °F 50 °F 30.03 in South 6.3 mph 13 mph 80% 0.00 in 200 W/m2
10:54 55.2 °F 50 °F 30.02 in South 8 mph 12 mph 80% 0.00 in 213 W/m2
10:59 55.2 °F 50 °F 30.03 in South 9 mph 16 mph 80% 0.00 in 167 W/m2
11:04 55.3 °F 50.1 °F 30.03 in SSE 5.2 mph 16 mph 80% 0.00 in 155 W/m2
11:09 55.5 °F 50.6 °F 30.02 in SSE 3.8 mph 9 mph 81% 0.00 in 158 W/m2
11:14 55.7 °F 50.8 °F 30.02 in South 4.5 mph 9 mph 81% 0.00 in 174 W/m2
11:19 55.8 °F 50.9 °F 30.02 in SSE 6.5 mph 12 mph 81% 0.00 in 190 W/m2
11:24 55.8 °F 50.9 °F 30.01 in South 6.8 mph 15 mph 81% 0.00 in 165 W/m2
11:29 55.9 °F 51.1 °F 30.01 in SSE 8 mph 14 mph 81% 0.00 in 155 W/m2
11:34 55.9 °F 51.1 °F 30.01 in SSE 10.6 mph 14 mph 81% 0.00 in 149 W/m2
11:39 55.9 °F 51.2 °F 30.01 in South 9 mph 16 mph 81.3% 0.00 in 158 W/m2
11:44 55.9 °F 51.4 °F 30.01 in South 10.4 mph 19 mph 82% 0.00 in 179 W/m2
11:49 55.9 °F 51.4 °F 30.01 in SSE 8.6 mph 20 mph 82% 0.00 in 229 W/m2
11:54 56.1 °F 51.6 °F 30.01 in South 7.6 mph 15 mph 82% 0.00 in 237 W/m2
11:59 56.1 °F 51.6 °F 30.01 in South 8.2 mph 15 mph 82% 0.00 in 148 W/m2
12:04 56.3 °F 52.1 °F 30.01 in South 5.4 mph 15 mph 82.8% 0.00 in 111 W/m2
12:09 56.2 °F 52.1 °F 30.01 in South 6.6 mph 16 mph 83% 0.00 in 127 W/m2
12:14 56.1 °F 52 °F 30.01 in South 7.1 mph 13 mph 83.2% 0.00 in 197 W/m2
12:19 56.1 °F 52.2 °F 30.01 in SSE 5 mph 13 mph 84% 0.01 in 209 W/m2
12:24 56.2 °F 52.6 °F 30.01 in South 5.7 mph 11 mph 85% 0.01 in 257 W/m2
12:29 56.2 °F 52.6 °F 30.01 in South 4.5 mph 9 mph 85% 0.01 in 114 W/m2
12:34 56.1 °F 52.7 °F 30.01 in SSE 4 mph 9 mph 85.4% 0.01 in 60 W/m2
12:39 56.1 °F 52.9 °F 30.01 in South 4.8 mph 9 mph 86% 0.01 in 63 W/m2
12:44 56.1 °F 52.9 °F 30.01 in South 4.5 mph 10 mph 86% 0.01 in 81 W/m2
12:49 56.1 °F 52.9 °F 30.00 in SSW 4.7 mph 10 mph 86% 0.01 in 111 W/m2
12:54 56.1 °F 52.9 °F 30.00 in South 5.6 mph 10 mph 86% 0.01 in 104 W/m2
12:59 56.3 °F 53.1 °F 30.00 in South 4.6 mph 11 mph 86% 0.01 in 149 W/m2
13:04 56.5 °F 53.2 °F 30.00 in South 3.2 mph 6 mph 86% 0.01 in 134 W/m2
13:09 56.5 °F 53.2 °F 30.00 in South 5.6 mph 12 mph 86% 0.01 in 90 W/m2
13:14 56.5 °F 53.2 °F 30.00 in South 4.8 mph 7 mph 86% 0.01 in 84 W/m2
13:19 56.5 °F 53.2 °F 30.00 in South 3.4 mph 9 mph 86% 0.00 in 141 W/m2
13:24 56.3 °F 53.1 °F 29.99 in South 8.2 mph 13 mph 86% 0.00 in 225 W/m2
13:29 56.5 °F 53.3 °F 29.99 in South 7.2 mph 15 mph 86.2% 0.00 in 209 W/m2
13:34 56.5 °F 53.4 °F 29.99 in South 9.2 mph 17 mph 86.6% 0.00 in 185 W/m2
13:39 56.5 °F 53.5 °F 29.99 in South 6.4 mph 15 mph 86.8% 0.00 in 153 W/m2
13:44 56.3 °F 53.4 °F 29.99 in South 5.8 mph 16 mph 87% 0.00 in 139 W/m2
13:49 56.1 °F 53.2 °F 29.99 in South 8.8 mph 14 mph 87.2% 0.00 in 125 W/m2
13:54 56 °F 53.3 °F 29.99 in SSE 5.3 mph 11 mph 88% 0.00 in 190 W/m2
13:59 56.1 °F 53.4 °F 29.98 in South 4.9 mph 9 mph 88% 0.00 in 207 W/m2
14:04 56.1 °F 53.4 °F 29.98 in South 6.5 mph 9 mph 88% 0.00 in 179 W/m2
14:09 56.3 °F 53.6 °F 29.98 in South 5.4 mph 10 mph 88% 0.00 in 125 W/m2
14:14 56.3 °F 53.6 °F 29.98 in South 5.9 mph 11 mph 88% 0.00 in 134 W/m2
14:19 56.5 °F 53.8 °F 29.98 in South 6.2 mph 11 mph 88% 0.00 in 248 W/m2
14:24 56.5 °F 53.8 °F 29.98 in South 4.5 mph 9 mph 88% 0.00 in 376 W/m2
14:29 56.7 °F 54 °F 29.98 in South 5.1 mph 10 mph 88% 0.00 in 295 W/m2
14:34 56.5 °F 54 °F 29.98 in South 4.2 mph 9 mph 88.5% 0.00 in 141 W/m2
14:39 56.7 °F 54.3 °F 29.98 in South 4.6 mph 11 mph 89% 0.00 in 139 W/m2
14:44 56.7 °F 54.3 °F 29.98 in South 5.1 mph 11 mph 89% 0.00 in 134 W/m2
14:49 56.7 °F 54.2 °F 29.98 in South 3.2 mph 9 mph 88.6% 0.00 in 93 W/m2
14:54 56.7 °F 54.1 °F 29.98 in South 4.8 mph 10 mph 88.4% 0.00 in 74 W/m2
14:59 56.7 °F 54 °F 29.98 in SSW 4.2 mph 10 mph 88% 0.00 in 77 W/m2
15:04 56.7 °F 54 °F 29.97 in SSW 2.9 mph 7 mph 88% 0.00 in 79 W/m2
15:09 56.8 °F 54.1 °F 29.98 in SSW 3.5 mph 10 mph 88% 0.00 in 69 W/m2
15:14 56.8 °F 54.1 °F 29.97 in SSW 1 mph 7 mph 88% 0.00 in 81 W/m2
15:19 56.8 °F 54.1 °F 29.97 in SSW 3.9 mph 9 mph 88% 0.00 in 90 W/m2
15:24 56.8 °F 54.1 °F 29.97 in SSW 1.9 mph 8 mph 88% 0.00 in 176 W/m2
15:29 56.8 °F 54.1 °F 29.97 in SSW 4.4 mph 7 mph 88% 0.00 in 139 W/m2
15:34 56.7 °F 54.2 °F 29.96 in SSW 5.2 mph 9 mph 88.6% 0.00 in 88 W/m2
15:39 56.7 °F 54.3 °F 29.96 in SSW 4.1 mph 9 mph 89% 0.00 in 65 W/m2
15:44 56.7 °F 54.3 °F 29.96 in SSW 2.8 mph 8 mph 89% 0.00 in 67 W/m2
15:49 56.7 °F 54.3 °F 29.96 in SSW 4.1 mph 8 mph 89% 0.00 in 47 W/m2
15:54 56.7 °F 54.5 °F 29.96 in SSW 2.7 mph 6 mph 89.4% 0.00 in 44 W/m2
15:59 56.7 °F 54.7 °F 29.96 in SSW 2.5 mph 7 mph 90% 0.00 in 42 W/m2
16:04 56.7 °F 54.7 °F 29.97 in SSW 3.2 mph 7 mph 90% 0.00 in 46 W/m2
16:09 56.8 °F 54.9 °F 29.96 in SSW 1.4 mph 4 mph 90% 0.00 in 56 W/m2
16:14 56.8 °F 54.9 °F 29.97 in SSW 3.3 mph 8 mph 90% 0.00 in 76 W/m2
16:19 56.7 °F 54.7 °F 29.97 in SSW 2.9 mph 7 mph 90% 0.00 in 84 W/m2
16:24 56.7 °F 54.8 °F 29.97 in SSW 0.7 mph 8 mph 90% 0.00 in 30 W/m2
16:29 56.8 °F 54.9 °F 29.97 in SSW 1.3 mph 4 mph 90% 0.00 in 53 W/m2
16:34 56.8 °F 54.9 °F 29.97 in SSW 1.2 mph 4 mph 90% 0.00 in 35 W/m2
16:39 56.8 °F 54.9 °F 29.96 in SSW 2.4 mph 6 mph 90% 0.00 in 91 W/m2
16:44 56.9 °F 55 °F 29.96 in SSW 2.6 mph 8 mph 90% 0.00 in 118 W/m2
16:49 57 °F 55 °F 29.96 in SSW 5.4 mph 8 mph 90% 0.00 in 139 W/m2
16:54 57 °F 55 °F 29.95 in SSW 3 mph 7 mph 90% 0.00 in 107 W/m2
16:59 57.4 °F 55.4 °F 29.95 in SSW 2.1 mph 6 mph 90% 0.00 in 88 W/m2
17:04 57.4 °F 55.5 °F 29.95 in SSW 1.7 mph 4 mph 90.4% 0.00 in 33 W/m2
17:09 57.4 °F 55.4 °F 29.96 in SSW 2 mph 5 mph 90% 0.00 in 26 W/m2
17:14 57.1 °F 55.1 °F 29.96 in SSW 2.8 mph 4 mph 90% 0.00 in 33 W/m2
17:19 57 °F 55 °F 29.96 in SSW 3.2 mph 5 mph 90% 0.00 in 23 W/m2
17:24 57 °F 55 °F 29.96 in SSW 2.5 mph 5 mph 90% 0.00 in 19 W/m2
17:29 56.9 °F 55 °F 29.96 in SSW 2.7 mph 5 mph 90% 0.00 in 18 W/m2
17:34 56.8 °F 54.9 °F 29.96 in SSW 3.2 mph 6 mph 90% 0.00 in 14 W/m2
17:39 56.8 °F 54.9 °F 29.96 in SSW 2.1 mph 6 mph 90% 0.00 in 11 W/m2
17:44 56.8 °F 54.9 °F 29.96 in SSW 2.3 mph 4 mph 90% 0.00 in 11 W/m2
17:49 56.8 °F 54.9 °F 29.96 in SSW 2.5 mph 7 mph 90% 0.00 in 9 W/m2
17:54 56.7 °F 54.8 °F 29.96 in SSW 1.3 mph 5 mph 90% 0.00 in 7 W/m2
17:59 56.7 °F 54.7 °F 29.96 in SSW 2.2 mph 4 mph 90% 0.00 in 5 W/m2
18:04 56.5 °F 54.5 °F 29.96 in SSW 1.2 mph 4 mph 90% 0.00 in 0 W/m2
18:09 56.3 °F 54.3 °F 29.96 in SSW 0.5 mph 2 mph 90% 0.00 in 0 W/m2
18:14 56.1 °F 54.1 °F 29.96 in SSW 0.6 mph 2 mph 90% 0.00 in 0 W/m2
18:19 56 °F 54 °F 29.96 in SSW 1.5 mph 4 mph 90% 0.00 in 0 W/m2
18:24 55.9 °F 54 °F 29.96 in SSW 1.3 mph 3 mph 90% 0.00 in 0 W/m2
18:29 55.8 °F 53.8 °F 29.96 in SSW 1.9 mph 4 mph 90% 0.00 in 0 W/m2
18:34 55.7 °F 53.7 °F 29.96 in SSW 0.4 mph 3 mph 90% 0.00 in 0 W/m2
18:39 55.6 °F 53.6 °F 29.96 in SSW 0.6 mph 3 mph 90% 0.00 in 0 W/m2
18:44 55.4 °F 53.4 °F 29.96 in SSW 1.4 mph 3 mph 90% 0.00 in 0 W/m2
18:49 55.2 °F 53.2 °F 29.96 in SSW 2.6 mph 5 mph 90% 0.00 in 0 W/m2
18:54 55.2 °F 53.2 °F 29.96 in SSW 2.1 mph 5 mph 90% 0.00 in 0 W/m2
18:59 55.2 °F 53.2 °F 29.97 in SSW 1.7 mph 4 mph 90% 0.00 in 0 W/m2
19:04 55.2 °F 53.3 °F 29.97 in SSW 1.9 mph 5 mph 90.2% 0.00 in 0 W/m2
19:09 55.2 °F 53.5 °F 29.97 in SSW 1.4 mph 5 mph 90.8% 0.00 in 0 W/m2
19:14 55.1 °F 53.2 °F 29.97 in SSW 2.3 mph 5 mph 90% 0.00 in 0 W/m2
19:19 55.1 °F 53.5 °F 29.97 in SSW 3.2 mph 5 mph 90.8% 0.00 in 0 W/m2
19:24 55 °F 53.4 °F 29.97 in SSW 2.7 mph 6 mph 91% 0.00 in 0 W/m2
19:29 55 °F 53.4 °F 29.97 in SSW 3 mph 6 mph 91% 0.00 in 0 W/m2
19:34 55 °F 53.4 °F 29.97 in SSW 2.8 mph 6 mph 91% 0.00 in 0 W/m2
19:39 54.9 °F 53.2 °F 29.97 in SSW 3 mph 6 mph 91% 0.00 in 0 W/m2
19:44 54.9 °F 53.2 °F 29.97 in SSW 3.2 mph 6 mph 91% 0.00 in 0 W/m2
19:49 54.9 °F 53.2 °F 29.97 in SSW 2.4 mph 6 mph 91% 0.00 in 0 W/m2
19:54 54.9 °F 53.2 °F 29.97 in SSW 2 mph 4 mph 91% 0.00 in 0 W/m2
19:59 54.9 °F 53.2 °F 29.97 in SSW 2.1 mph 6 mph 91% 0.00 in 0 W/m2
20:04 54.9 °F 53.2 °F 29.97 in SSW 3.7 mph 8 mph 91% 0.00 in 0 W/m2
20:09 54.9 °F 53.2 °F 29.97 in SSW 2.7 mph 10 mph 91% 0.00 in 0 W/m2
20:14 54.9 °F 53.2 °F 29.97 in SSW 3.8 mph 8 mph 91% 0.00 in 0 W/m2
20:19 55 °F 53.4 °F 29.97 in SSW 4.6 mph 9 mph 91% 0.00 in 0 W/m2
20:24 55 °F 53.4 °F 29.96 in SSW 5.2 mph 9 mph 91% 0.00 in 0 W/m2
20:29 55 °F 53.4 °F 29.97 in SSW 4.1 mph 9 mph 91% 0.00 in 0 W/m2
20:34 55 °F 53.4 °F 29.97 in SSW 4.4 mph 8 mph 91% 0.00 in 0 W/m2
20:39 55.2 °F 53.6 °F 29.97 in SSW 4.5 mph 8 mph 91% 0.00 in 0 W/m2
20:44 55.2 °F 53.6 °F 29.97 in SSW 6.2 mph 10 mph 91% 0.00 in 0 W/m2
20:49 55.2 °F 53.6 °F 29.97 in SSW 3.2 mph 8 mph 91% 0.00 in 0 W/m2
20:54 55.1 °F 53.5 °F 29.97 in SSW 3.5 mph 10 mph 91% 0.00 in 0 W/m2
20:59 55 °F 53.4 °F 29.97 in SSW 4.6 mph 8 mph 91% 0.00 in 0 W/m2
21:04 54.9 °F 53.3 °F 29.97 in SSW 4.4 mph 8 mph 91% 0.00 in 0 W/m2
21:09 54.9 °F 53.2 °F 29.97 in SSW 5.2 mph 9 mph 91% 0.00 in 0 W/m2
21:14 54.9 °F 53.2 °F 29.97 in SSW 4.9 mph 12 mph 91% 0.00 in 0 W/m2
21:19 54.9 °F 53.2 °F 29.97 in SSW 4.7 mph 12 mph 91% 0.00 in 0 W/m2
21:24 54.7 °F 53.1 °F 29.97 in SSW 3 mph 9 mph 91% 0.00 in 0 W/m2
21:29 54.7 °F 53.1 °F 29.97 in SSW 4.5 mph 9 mph 91% 0.00 in 0 W/m2
21:34 54.5 °F 52.9 °F 29.97 in SSW 3.8 mph 9 mph 91% 0.00 in 0 W/m2
21:39 54.3 °F 52.7 °F 29.97 in SW 3.5 mph 10 mph 91% 0.00 in 0 W/m2
21:44 54.3 °F 52.7 °F 29.97 in SW 3.6 mph 7 mph 91% 0.00 in 0 W/m2
21:49 54.2 °F 52.6 °F 29.97 in SW 4.3 mph 9 mph 91% 0.00 in 0 W/m2
21:54 54.1 °F 52.5 °F 29.97 in SW 5.2 mph 12 mph 91% 0.00 in 0 W/m2
21:59 54.1 °F 52.5 °F 29.97 in SW 4.7 mph 10 mph 91% 0.00 in 0 W/m2
22:04 54.1 °F 52.5 °F 29.97 in SW 3.6 mph 8 mph 91% 0.00 in 0 W/m2
22:09 54 °F 52.3 °F 29.97 in SW 4 mph 8 mph 91% 0.00 in 0 W/m2
22:14 54 °F 52.3 °F 29.97 in SW 4.2 mph 8 mph 91% 0.00 in 0 W/m2
22:19 54 °F 52.3 °F 29.98 in SW 4 mph 8 mph 91% 0.00 in 0 W/m2
22:24 54 °F 52.3 °F 29.98 in SW 2.9 mph 8 mph 91% 0.00 in 0 W/m2
22:29 54 °F 52.3 °F 29.98 in SW 4.1 mph 8 mph 91% 0.00 in 0 W/m2
22:34 53.8 °F 52.2 °F 29.98 in SW 2.1 mph 6 mph 91% 0.00 in 0 W/m2
22:39 53.8 °F 52.2 °F 29.98 in SW 2.8 mph 8 mph 91% 0.00 in 0 W/m2
22:44 53.8 °F 52.2 °F 29.98 in SW 4.1 mph 9 mph 91% 0.00 in 0 W/m2
22:49 53.6 °F 52 °F 29.98 in SW 4.5 mph 9 mph 91% 0.00 in 0 W/m2
22:54 53.6 °F 52 °F 29.98 in SW 2.3 mph 5 mph 91% 0.00 in 0 W/m2
22:59 53.5 °F 51.8 °F 29.98 in SW 2.2 mph 5 mph 91% 0.00 in 0 W/m2
23:04 53.4 °F 51.8 °F 29.98 in SW 2.9 mph 7 mph 91% 0.00 in 0 W/m2
23:09 53.4 °F 51.8 °F 29.98 in SW 3.2 mph 7 mph 91% 0.00 in 0 W/m2
23:14 53.4 °F 51.8 °F 29.98 in SW 2.5 mph 6 mph 91% 0.00 in 0 W/m2
23:19 53.3 °F 51.7 °F 29.98 in SW 3.3 mph 7 mph 91% 0.00 in 0 W/m2
23:24 53.2 °F 51.6 °F 29.98 in SW 2.5 mph 7 mph 91% 0.00 in 0 W/m2
23:29 53.2 °F 51.6 °F 29.98 in SW 2.5 mph 7 mph 91% 0.00 in 0 W/m2
23:34 53.1 °F 51.4 °F 29.97 in SW 4.1 mph 8 mph 91% 0.00 in 0 W/m2
23:39 53.1 °F 51.4 °F 29.97 in SW 2.8 mph 8 mph 91% 0.00 in 0 W/m2
23:44 53.1 °F 51.4 °F 29.97 in SW 1.3 mph 6 mph 91% 0.00 in 0 W/m2
23:49 52.9 °F 51.3 °F 29.97 in SW 1.5 mph 6 mph 91% 0.00 in 0 W/m2
23:54 52.9 °F 51.3 °F 29.97 in SW 2.2 mph 5 mph 91% 0.00 in 0 W/m2
23:59 52.9 °F 51.3 °F 29.97 in SW 1.9 mph 5 mph 91% 0.00 in 0 W/m2
Bath Spa Weather
Compliments of Weather Underground - 2 mb